createdAt,value
2024-01-20T00:00:16.977Z,88.69
2024-01-20T00:02:47.989Z,88.61
2024-01-20T00:05:19.105Z,88.73
2024-01-20T00:07:47.653Z,88.42
2024-01-20T00:10:15.895Z,87.83
2024-01-20T00:12:45.721Z,88.28
2024-01-20T00:15:14.505Z,88.44
2024-01-20T00:17:43.124Z,88.89
2024-01-20T00:20:13.840Z,89.03
2024-01-20T00:22:42.621Z,88.75
2024-01-20T00:25:11.736Z,88.82
2024-01-20T00:27:40.599Z,88.65
2024-01-20T00:30:11.574Z,88.38
2024-01-20T00:32:40.610Z,89.00
2024-01-20T00:35:10.001Z,89.19
2024-01-20T00:37:40.044Z,88.52
2024-01-20T00:40:09.254Z,88.00
2024-01-20T00:42:37.315Z,87.53
2024-01-20T00:45:06.063Z,87.95
2024-01-20T00:47:37.758Z,87.62
2024-01-20T00:50:08.741Z,88.61
2024-01-20T00:52:36.860Z,89.28
2024-01-20T00:55:05.646Z,88.97
2024-01-20T00:57:33.873Z,89.59
2024-01-20T01:00:01.962Z,89.53
2024-01-20T01:02:30.326Z,88.98
2024-01-20T01:04:59.685Z,89.04
2024-01-20T01:07:27.702Z,88.74
2024-01-20T01:09:56.201Z,88.70
2024-01-20T01:12:24.482Z,89.25
2024-01-20T01:14:55.456Z,89.22
2024-01-20T01:17:23.754Z,89.42
2024-01-20T01:19:54.879Z,89.13
2024-01-20T01:22:27.023Z,88.84
2024-01-20T01:24:55.370Z,89.12
2024-01-20T01:27:23.523Z,89.15
2024-01-20T01:29:51.720Z,89.23
2024-01-20T01:32:20.568Z,89.32
2024-01-20T01:34:48.774Z,89.54
2024-01-20T01:37:16.976Z,89.56
2024-01-20T01:39:46.900Z,89.39
2024-01-20T01:42:16.423Z,90.12
2024-01-20T01:44:44.403Z,90.05
2024-01-20T01:47:13.160Z,89.40
2024-01-20T01:49:41.589Z,89.02
2024-01-20T01:52:10.078Z,88.69
2024-01-20T01:54:38.146Z,88.68
2024-01-20T01:57:08.254Z,88.18
2024-01-20T01:59:39.319Z,88.31
2024-01-20T02:02:09.058Z,88.85
2024-01-20T02:04:37.075Z,89.04
2024-01-20T02:07:07.217Z,89.03
2024-01-20T02:09:35.359Z,89.13
2024-01-20T02:12:04.884Z,88.70
2024-01-20T02:14:35.482Z,88.44
2024-01-20T02:17:03.885Z,88.74
2024-01-20T02:19:31.852Z,88.68
2024-01-20T02:22:00.065Z,88.96
2024-01-20T02:24:29.423Z,88.65
2024-01-20T02:26:57.777Z,88.61
2024-01-20T02:29:25.739Z,88.83
2024-01-20T02:31:53.894Z,89.10
2024-01-20T02:34:21.840Z,89.26
2024-01-20T02:36:50.012Z,89.52
2024-01-20T02:39:18.171Z,89.52
2024-01-20T02:41:48.681Z,89.73
2024-01-20T02:44:16.959Z,89.58
2024-01-20T02:46:44.871Z,89.47
2024-01-20T02:49:13.684Z,89.72
2024-01-20T02:51:42.046Z,90.23
2024-01-20T02:54:12.467Z,90.19
2024-01-20T02:56:40.411Z,89.94
2024-01-20T02:59:10.154Z,90.12
2024-01-20T03:01:38.125Z,89.89
2024-01-20T03:04:06.193Z,90.18
2024-01-20T03:06:36.195Z,89.64
2024-01-20T03:09:04.344Z,89.69
2024-01-20T03:11:34.066Z,89.31
2024-01-20T03:14:02.031Z,89.85
2024-01-20T03:16:31.460Z,89.32
2024-01-20T03:19:07.083Z,88.77
2024-01-20T03:21:35.483Z,89.04
2024-01-20T03:24:03.524Z,88.81
2024-01-20T03:26:33.948Z,88.99
2024-01-20T03:29:04.367Z,88.11
2024-01-20T03:31:36.571Z,88.73
2024-01-20T03:34:07.520Z,88.40
2024-01-20T03:36:35.478Z,88.01
2024-01-20T03:39:03.779Z,87.33
2024-01-20T03:41:34.161Z,87.68
2024-01-20T03:44:02.235Z,87.77
2024-01-20T03:46:30.152Z,88.07
2024-01-20T03:49:03.010Z,87.93
2024-01-20T03:51:31.257Z,87.86
2024-01-20T03:53:59.568Z,88.19
2024-01-20T03:56:27.619Z,87.94
2024-01-20T03:58:55.794Z,87.67
2024-01-20T04:01:24.151Z,88.07
2024-01-20T04:03:53.516Z,87.17
2024-01-20T04:06:23.008Z,87.30
2024-01-20T04:08:51.026Z,87.66
2024-01-20T04:11:19.005Z,86.96
2024-01-20T04:13:49.877Z,86.88
2024-01-20T04:16:20.717Z,86.17
2024-01-20T04:18:48.804Z,86.14
2024-01-20T04:21:19.013Z,85.63
2024-01-20T04:23:48.556Z,85.70
2024-01-20T04:26:17.299Z,85.75
2024-01-20T04:28:45.336Z,85.77
2024-01-20T04:31:13.331Z,86.06
2024-01-20T04:33:42.157Z,86.74
2024-01-20T04:36:10.439Z,86.18
2024-01-20T04:38:38.568Z,86.91
2024-01-20T04:41:07.891Z,86.45
2024-01-20T04:43:38.486Z,85.54
2024-01-20T04:46:06.570Z,85.83
2024-01-20T04:48:35.300Z,85.50
2024-01-20T04:51:03.558Z,86.28
2024-01-20T04:53:31.523Z,86.24
2024-01-20T04:55:59.521Z,86.55
2024-01-20T04:58:28.915Z,85.90
2024-01-20T05:00:57.324Z,85.88
2024-01-20T05:03:25.542Z,86.03
2024-01-20T05:05:53.702Z,86.19
2024-01-20T05:08:22.706Z,86.51
2024-01-20T05:10:50.796Z,86.27
2024-01-20T05:13:18.780Z,86.94
2024-01-20T05:15:48.235Z,86.05
2024-01-20T05:18:16.411Z,86.07
2024-01-20T05:20:44.432Z,86.76
2024-01-20T05:23:12.956Z,86.36
2024-01-20T05:25:41.075Z,86.45
2024-01-20T05:28:11.448Z,85.82
2024-01-20T05:30:42.054Z,85.96
2024-01-20T05:33:11.868Z,86.24
2024-01-20T05:35:47.081Z,86.10
2024-01-20T05:38:17.660Z,85.96
2024-01-20T05:40:46.221Z,86.64
2024-01-20T05:43:15.204Z,86.48
2024-01-20T05:45:43.452Z,85.46
2024-01-20T05:48:13.831Z,85.95
2024-01-20T05:50:44.807Z,86.47
2024-01-20T05:53:16.838Z,86.81
2024-01-20T05:55:44.979Z,86.73
2024-01-20T05:58:16.230Z,86.37
2024-01-20T06:00:44.287Z,86.01
2024-01-20T06:03:14.052Z,86.37
2024-01-20T06:05:44.654Z,86.89
2024-01-20T06:08:12.652Z,86.27
2024-01-20T06:10:44.259Z,86.96
2024-01-20T06:13:12.743Z,86.82
2024-01-20T06:15:40.989Z,87.17
2024-01-20T06:18:09.488Z,87.36
2024-01-20T06:20:39.195Z,87.00
2024-01-20T06:23:10.163Z,86.58
2024-01-20T06:25:45.613Z,86.38
2024-01-20T06:28:13.560Z,86.58
2024-01-20T06:30:41.614Z,86.23
2024-01-20T06:33:10.069Z,86.60
2024-01-20T06:35:42.148Z,86.26
2024-01-20T06:38:10.282Z,86.00
2024-01-20T06:40:38.231Z,85.29
2024-01-20T06:43:07.572Z,86.34
2024-01-20T06:45:36.277Z,86.69
2024-01-20T06:48:06.235Z,86.94
2024-01-20T06:50:34.407Z,87.01
2024-01-20T06:53:04.245Z,86.77
2024-01-20T06:55:32.611Z,87.04
2024-01-20T06:58:00.738Z,86.71
2024-01-20T07:00:28.790Z,87.52
2024-01-20T07:03:00.437Z,87.18
2024-01-20T07:05:31.560Z,87.36
2024-01-20T07:07:59.833Z,86.81
2024-01-20T07:10:29.226Z,86.78
2024-01-20T07:12:57.341Z,86.52
2024-01-20T07:15:27.957Z,86.59
2024-01-20T07:17:57.556Z,87.14
2024-01-20T07:20:26.330Z,87.09
2024-01-20T07:22:57.392Z,86.92
2024-01-20T07:25:26.511Z,87.07
2024-01-20T07:27:56.009Z,86.38
2024-01-20T07:30:24.328Z,86.36
2024-01-20T07:35:29.276Z,86.15
2024-01-20T07:37:57.539Z,87.09
2024-01-20T07:40:25.525Z,86.72
2024-01-20T07:42:53.822Z,87.05
2024-01-20T07:45:24.156Z,87.05
2024-01-20T07:47:52.676Z,87.17
2024-01-20T07:50:22.362Z,87.71
2024-01-20T07:52:50.419Z,86.98
2024-01-20T07:55:18.561Z,87.76
2024-01-20T07:57:46.846Z,87.99
2024-01-20T08:00:15.709Z,87.63
2024-01-20T08:02:45.272Z,87.42
2024-01-20T08:05:13.569Z,88.17
2024-01-20T08:07:41.645Z,88.56
2024-01-20T08:10:10.393Z,88.33
2024-01-20T08:12:38.813Z,88.68
2024-01-20T08:15:08.511Z,88.57
2024-01-20T08:17:36.706Z,89.25
2024-01-20T08:20:08.228Z,89.28
2024-01-20T08:22:36.544Z,89.06
2024-01-20T08:25:06.237Z,89.37
2024-01-20T08:27:34.269Z,89.13
2024-01-20T08:30:02.667Z,89.61
2024-01-20T08:32:31.025Z,88.71
2024-01-20T08:34:59.475Z,88.42
2024-01-20T08:37:28.772Z,88.12
2024-01-20T08:39:56.810Z,87.90
2024-01-20T08:42:28.237Z,87.99
2024-01-20T08:44:56.689Z,87.63
2024-01-20T08:47:25.310Z,87.38
2024-01-20T08:49:56.231Z,87.83
2024-01-20T08:52:24.573Z,88.05
2024-01-20T08:54:54.817Z,87.70
2024-01-20T08:57:23.044Z,86.83
2024-01-20T08:59:51.147Z,85.87
2024-01-20T09:02:19.492Z,85.80
2024-01-20T09:04:47.622Z,85.34
2024-01-20T09:07:15.796Z,84.67
2024-01-20T09:09:48.512Z,84.27
2024-01-20T09:12:20.297Z,84.37
2024-01-20T09:14:50.352Z,84.41
2024-01-20T09:17:18.609Z,84.43
2024-01-20T09:19:48.663Z,84.18
2024-01-20T09:22:18.525Z,84.07
2024-01-20T09:24:46.639Z,84.39
2024-01-20T09:27:14.698Z,84.01
2024-01-20T09:29:44.221Z,81.96
2024-01-20T09:32:15.253Z,80.78
2024-01-20T09:34:43.475Z,81.08
2024-01-20T09:37:12.587Z,81.05
2024-01-20T09:39:40.941Z,80.90
2024-01-20T09:42:09.561Z,80.72
2024-01-20T09:44:37.708Z,80.86
2024-01-20T09:47:10.641Z,80.39
2024-01-20T09:49:38.923Z,79.05
2024-01-20T09:52:11.231Z,78.85
2024-01-20T09:54:42.565Z,78.59
2024-01-20T09:57:13.017Z,79.11
2024-01-20T09:59:42.587Z,77.94
2024-01-20T10:02:13.289Z,78.04
2024-01-20T10:04:42.068Z,77.68
2024-01-20T10:07:10.216Z,77.43
2024-01-20T10:09:43.227Z,77.99
2024-01-20T10:12:11.367Z,78.56
2024-01-20T10:14:39.837Z,78.29
2024-01-20T10:17:08.164Z,78.31
2024-01-20T10:19:38.953Z,77.81
2024-01-20T10:22:09.516Z,78.53
2024-01-20T10:24:47.685Z,78.73
2024-01-20T10:27:18.520Z,79.10
2024-01-20T10:29:50.237Z,79.06
2024-01-20T10:32:19.096Z,79.66
2024-01-20T10:34:54.004Z,78.75
2024-01-20T10:37:24.624Z,79.09
2024-01-20T10:39:54.024Z,77.38
2024-01-20T10:42:22.768Z,77.91
2024-01-20T10:44:54.572Z,77.79
2024-01-20T10:47:32.286Z,76.71
2024-01-20T10:50:05.698Z,76.91
2024-01-20T10:52:35.014Z,77.87
2024-01-20T10:55:04.113Z,77.45
2024-01-20T10:57:33.882Z,76.86
2024-01-20T11:00:05.516Z,76.74
2024-01-20T11:02:35.266Z,75.62
2024-01-20T11:05:19.073Z,75.06
2024-01-20T11:07:57.261Z,75.13
2024-01-20T11:10:25.914Z,74.63
2024-01-20T11:13:05.861Z,74.87
2024-01-20T11:15:34.353Z,74.41
2024-01-20T11:18:04.088Z,74.41
2024-01-20T11:20:34.937Z,75.06
2024-01-20T11:23:10.269Z,73.66
2024-01-20T11:25:38.649Z,73.04
2024-01-20T11:28:06.992Z,73.81
2024-01-20T11:30:38.518Z,73.81
2024-01-20T11:33:07.692Z,74.37
2024-01-20T11:35:39.480Z,72.61
2024-01-20T11:38:09.418Z,72.43
2024-01-20T11:40:46.553Z,72.01
2024-01-20T11:43:14.911Z,71.69
2024-01-20T11:45:44.887Z,70.63
2024-01-20T11:48:15.245Z,70.19
2024-01-20T11:50:45.164Z,70.23
2024-01-20T11:53:13.309Z,70.58
2024-01-20T11:55:53.973Z,70.69
2024-01-20T11:58:23.271Z,70.83
2024-01-20T12:00:57.385Z,70.34
2024-01-20T12:03:27.854Z,71.32
2024-01-20T12:05:57.953Z,72.60
2024-01-20T12:08:26.571Z,71.89
2024-01-20T12:10:54.618Z,71.75
2024-01-20T12:13:23.039Z,70.82
2024-01-20T12:15:51.473Z,70.92
2024-01-20T12:18:19.914Z,70.85
2024-01-20T12:20:48.494Z,70.12
2024-01-20T12:23:24.198Z,70.48
2024-01-20T12:25:54.569Z,71.08
2024-01-20T12:28:23.703Z,70.77
2024-01-20T12:30:52.900Z,71.57
2024-01-20T12:33:21.440Z,70.80
2024-01-20T12:35:49.498Z,72.09
2024-01-20T12:38:17.688Z,71.07
2024-01-20T12:40:47.111Z,69.84
2024-01-20T12:43:15.409Z,68.57
2024-01-20T12:45:43.927Z,68.83
2024-01-20T12:48:14.160Z,67.03
2024-01-20T12:50:42.361Z,65.77
2024-01-20T12:53:10.379Z,65.61
2024-01-20T12:55:38.605Z,63.17
2024-01-20T12:58:08.138Z,64.40
2024-01-20T13:00:36.298Z,65.39
2024-01-20T13:03:04.956Z,69.55
2024-01-20T13:05:33.450Z,69.36
2024-01-20T13:08:01.724Z,70.58
2024-01-20T13:10:32.600Z,70.91
2024-01-20T13:13:00.632Z,71.07
2024-01-20T13:15:31.229Z,70.53
2024-01-20T13:17:59.611Z,71.51
2024-01-20T13:20:30.109Z,70.92
2024-01-20T13:22:58.535Z,71.07
2024-01-20T13:25:29.962Z,71.03
2024-01-20T13:27:59.402Z,71.28
2024-01-20T13:30:30.392Z,71.50
2024-01-20T13:33:00.496Z,70.96
2024-01-20T13:35:28.863Z,72.54
2024-01-20T13:37:56.836Z,72.40
2024-01-20T13:40:26.827Z,72.28
2024-01-20T13:42:54.936Z,72.82
2024-01-20T13:45:23.581Z,73.58
2024-01-20T13:47:51.924Z,73.64
2024-01-20T13:50:21.795Z,73.27
2024-01-20T13:52:50.563Z,73.30
2024-01-20T13:55:19.638Z,72.82
2024-01-20T13:57:47.744Z,72.84
2024-01-20T14:00:16.672Z,72.91
2024-01-20T14:02:45.877Z,72.99
2024-01-20T14:05:14.304Z,73.29
2024-01-20T14:07:43.840Z,73.33
2024-01-20T14:10:12.631Z,72.91
2024-01-20T14:12:41.074Z,73.35
2024-01-20T14:15:09.942Z,73.11
2024-01-20T14:17:38.094Z,74.80
2024-01-20T14:20:07.802Z,74.29
2024-01-20T14:22:35.898Z,74.88
2024-01-20T14:25:08.549Z,74.55
2024-01-20T14:27:36.707Z,74.17
2024-01-20T14:30:05.330Z,72.28
2024-01-20T14:32:33.836Z,72.04
2024-01-20T14:35:02.852Z,72.16
2024-01-20T14:37:34.028Z,71.85
2024-01-20T14:40:02.210Z,71.32
2024-01-20T14:42:31.806Z,71.96
2024-01-20T14:45:02.640Z,71.04
2024-01-20T14:47:30.830Z,70.94
2024-01-20T14:50:02.126Z,71.38
2024-01-20T14:52:30.524Z,71.35
2024-01-20T14:55:03.951Z,71.47
2024-01-20T14:57:34.127Z,71.96
2024-01-20T15:00:04.756Z,71.53
2024-01-20T15:02:35.518Z,71.60
2024-01-20T15:05:04.248Z,71.32
2024-01-20T15:07:34.850Z,71.70
2024-01-20T15:10:03.464Z,71.31
2024-01-20T15:12:33.419Z,70.80
2024-01-20T15:15:01.828Z,71.38
2024-01-20T15:17:31.412Z,70.71
2024-01-20T15:19:59.598Z,71.04
2024-01-20T15:22:28.221Z,71.30
2024-01-20T15:24:56.524Z,71.39
2024-01-20T15:27:25.383Z,71.66
2024-01-20T15:29:54.855Z,72.46
2024-01-20T15:32:24.936Z,72.83
2024-01-20T15:34:54.349Z,72.85
2024-01-20T15:37:25.406Z,73.01
2024-01-20T15:39:53.778Z,73.03
2024-01-20T15:42:22.120Z,73.08
2024-01-20T15:44:50.451Z,73.15
2024-01-20T15:47:20.872Z,73.55
2024-01-20T15:49:49.112Z,73.49
2024-01-20T15:52:17.534Z,72.90
2024-01-20T15:54:48.686Z,73.09
2024-01-20T15:57:19.050Z,72.67
2024-01-20T15:59:47.167Z,72.48
2024-01-20T16:02:17.851Z,72.20
2024-01-20T16:04:48.202Z,72.01
2024-01-20T16:07:16.693Z,71.93
2024-01-20T16:09:45.246Z,72.80
2024-01-20T16:12:13.559Z,72.54
2024-01-20T16:14:41.848Z,72.73
2024-01-20T16:17:10.259Z,72.98
2024-01-20T16:19:41.566Z,72.97
2024-01-20T16:22:11.114Z,73.25
2024-01-20T16:24:39.850Z,72.90
2024-01-20T16:27:08.024Z,73.02
2024-01-20T16:29:36.258Z,73.27
2024-01-20T16:32:06.772Z,73.79
2024-01-20T16:34:36.711Z,74.15
2024-01-20T16:37:05.227Z,73.99
2024-01-20T16:39:38.042Z,74.67
2024-01-20T16:42:06.447Z,74.60
2024-01-20T16:44:34.655Z,74.34
2024-01-20T16:47:06.710Z,74.77
2024-01-20T16:49:38.111Z,74.75
2024-01-20T16:52:07.583Z,75.36
2024-01-20T16:54:37.129Z,74.83
2024-01-20T16:57:13.351Z,75.17
2024-01-20T16:59:42.185Z,75.61
2024-01-20T17:02:10.235Z,75.54
2024-01-20T17:04:39.627Z,76.19
2024-01-20T17:07:07.891Z,75.56
2024-01-20T17:09:40.289Z,76.49
2024-01-20T17:12:09.165Z,75.93
2024-01-20T17:14:38.181Z,76.08
2024-01-20T17:17:07.543Z,75.80
2024-01-20T17:19:40.087Z,75.80
2024-01-20T17:22:11.047Z,76.09
2024-01-20T17:24:40.522Z,75.61
2024-01-20T17:27:08.807Z,75.35
2024-01-20T17:29:37.216Z,75.23
2024-01-20T17:32:09.593Z,75.31
2024-01-20T17:34:37.798Z,75.77
2024-01-20T17:37:06.911Z,75.49
2024-01-20T17:39:38.407Z,76.11
2024-01-20T17:42:11.007Z,76.27
2024-01-20T17:44:40.072Z,77.29
2024-01-20T17:47:10.574Z,77.75
2024-01-20T17:49:39.247Z,78.05
2024-01-20T17:52:08.245Z,77.91
2024-01-20T17:54:36.838Z,77.74
2024-01-20T17:57:05.823Z,78.30
2024-01-20T17:59:37.640Z,78.81
2024-01-20T18:02:05.995Z,79.36
2024-01-20T18:04:36.708Z,80.01
2024-01-20T18:07:08.387Z,80.49
2024-01-20T18:09:36.907Z,80.37
2024-01-20T18:12:05.428Z,80.49
2024-01-20T18:14:35.338Z,80.14
2024-01-20T18:17:06.535Z,79.95
2024-01-20T18:19:35.067Z,80.55
2024-01-20T18:22:03.399Z,80.74
2024-01-20T18:24:33.063Z,80.76
2024-01-20T18:27:01.350Z,80.66
2024-01-20T18:29:29.710Z,80.70
2024-01-20T18:32:03.024Z,80.64
2024-01-20T18:34:31.186Z,80.88
2024-01-20T18:36:59.321Z,80.86
2024-01-20T18:39:27.715Z,80.62
2024-01-20T18:41:55.859Z,80.34
2024-01-20T18:44:24.299Z,80.31
2024-01-20T18:46:52.631Z,80.53
2024-01-20T18:49:22.461Z,80.59
2024-01-20T18:51:51.795Z,81.00
2024-01-20T18:54:21.878Z,80.93
2024-01-20T18:56:54.303Z,81.52
2024-01-20T18:59:22.736Z,81.31
2024-01-20T19:01:51.409Z,81.59
2024-01-20T19:04:22.849Z,82.13
2024-01-20T19:06:54.969Z,81.65
2024-01-20T19:09:23.485Z,81.56
2024-01-20T19:11:51.681Z,81.70
2024-01-20T19:14:20.042Z,82.14
2024-01-20T19:16:48.254Z,82.17
2024-01-20T19:19:16.435Z,82.59
2024-01-20T19:21:45.131Z,82.43
2024-01-20T19:24:17.319Z,82.27
2024-01-20T19:26:45.700Z,81.94
2024-01-20T19:29:13.966Z,82.18
2024-01-20T19:31:44.607Z,82.40
2024-01-20T19:34:12.948Z,82.02
2024-01-20T19:36:41.195Z,81.86
2024-01-20T19:39:09.745Z,81.30
2024-01-20T19:41:39.440Z,81.66
2024-01-20T19:44:08.187Z,81.47
2024-01-20T19:46:40.794Z,81.32
2024-01-20T19:49:09.237Z,81.37
2024-01-20T19:51:41.375Z,81.92
2024-01-20T19:54:13.558Z,82.47
2024-01-20T19:56:47.894Z,82.66
2024-01-20T19:59:17.687Z,82.64
2024-01-20T20:01:47.937Z,82.69
2024-01-20T20:04:17.777Z,82.00
2024-01-20T20:06:46.784Z,82.21
2024-01-20T20:09:15.630Z,82.44
2024-01-20T20:11:45.477Z,82.08
2024-01-20T20:14:14.164Z,82.63
2024-01-20T20:16:42.910Z,82.39
2024-01-20T20:19:13.440Z,82.15
2024-01-20T20:21:42.267Z,82.18
2024-01-20T20:24:12.394Z,82.43
2024-01-20T20:26:42.781Z,82.33
2024-01-20T20:29:19.247Z,82.14
2024-01-20T20:31:48.486Z,81.69
2024-01-20T20:34:16.820Z,82.78
2024-01-20T20:36:45.147Z,82.62
2024-01-20T20:39:13.962Z,83.07
2024-01-20T20:41:43.967Z,83.36
2024-01-20T20:44:12.341Z,83.40
2024-01-20T20:46:49.545Z,83.17
2024-01-20T20:49:17.829Z,83.31
2024-01-20T20:51:46.066Z,83.63
2024-01-20T20:54:14.310Z,83.52
2024-01-20T20:56:42.545Z,83.56
2024-01-20T20:59:13.470Z,83.53
2024-01-20T21:01:42.023Z,83.19
2024-01-20T21:04:14.461Z,83.61
2024-01-20T21:06:42.735Z,83.49
2024-01-20T21:09:12.196Z,83.92
2024-01-20T21:11:43.017Z,83.86
2024-01-20T21:14:11.361Z,83.51
2024-01-20T21:16:39.415Z,82.94
2024-01-20T21:19:07.826Z,83.03
2024-01-20T21:21:37.549Z,83.02
2024-01-20T21:24:06.189Z,82.69
2024-01-20T21:26:36.057Z,82.76
2024-01-20T21:29:07.408Z,82.91
2024-01-20T21:31:38.508Z,83.51
2024-01-20T21:34:06.755Z,82.94
2024-01-20T21:36:34.872Z,82.84
2024-01-20T21:39:10.281Z,83.19
2024-01-20T21:41:38.677Z,83.04
2024-01-20T21:44:07.861Z,83.16
2024-01-20T21:46:37.421Z,82.99
2024-01-20T21:49:06.168Z,83.06
2024-01-20T21:51:34.443Z,82.88
2024-01-20T21:54:04.255Z,83.14
2024-01-20T21:56:32.403Z,83.22
2024-01-20T21:59:00.561Z,82.97
2024-01-20T22:01:28.783Z,83.08
2024-01-20T22:03:57.028Z,83.18
2024-01-20T22:06:25.406Z,83.27
2024-01-20T22:08:53.731Z,83.40
2024-01-20T22:11:23.309Z,83.24
2024-01-20T22:13:51.623Z,83.49
2024-01-20T22:16:20.045Z,83.56
2024-01-20T22:18:48.373Z,83.78
2024-01-20T22:21:16.974Z,83.96
2024-01-20T22:23:45.239Z,83.75
2024-01-20T22:26:17.112Z,83.86
2024-01-20T22:28:47.613Z,84.36
2024-01-20T22:31:16.001Z,83.85
2024-01-20T22:33:45.521Z,83.80
2024-01-20T22:36:14.118Z,83.93
2024-01-20T22:38:43.274Z,83.83
2024-01-20T22:41:11.790Z,83.71
2024-01-20T22:43:40.047Z,83.39
2024-01-20T22:46:18.793Z,84.00
2024-01-20T22:48:46.997Z,83.91
2024-01-20T22:51:22.801Z,83.67
2024-01-20T22:53:51.477Z,83.81
2024-01-20T22:56:22.334Z,83.93
2024-01-20T22:58:50.505Z,83.54
2024-01-20T23:01:20.757Z,83.48
2024-01-20T23:03:51.698Z,83.63
2024-01-20T23:06:19.923Z,83.37
2024-01-20T23:08:52.147Z,83.44
2024-01-20T23:11:23.210Z,83.55
2024-01-20T23:13:51.370Z,83.07
2024-01-20T23:16:20.744Z,83.38
2024-01-20T23:18:49.073Z,83.45
2024-01-20T23:21:20.605Z,83.56
2024-01-20T23:23:49.045Z,83.54
2024-01-20T23:26:17.922Z,83.20
2024-01-20T23:28:46.849Z,83.63
2024-01-20T23:31:16.880Z,83.63
2024-01-20T23:33:49.793Z,83.61
2024-01-20T23:36:21.118Z,83.47
2024-01-20T23:38:52.304Z,82.84
2024-01-20T23:41:21.067Z,82.94
2024-01-20T23:43:49.779Z,83.36
2024-01-20T23:46:17.987Z,83.54
2024-01-20T23:48:47.493Z,83.26
2024-01-20T23:51:16.452Z,83.61
2024-01-20T23:53:45.605Z,83.50
2024-01-20T23:56:13.631Z,83.52
2024-01-20T23:58:45.207Z,83.70
